sensor_id;sensor_type;location;lat;lon;timestamp;temperature;humidity
68556;HTU21D;55544;51.032;5.866;2023-12-20T00:01:01;9.44;92.40
68556;HTU21D;55544;51.032;5.866;2023-12-20T00:03:27;9.41;92.19
68556;HTU21D;55544;51.032;5.866;2023-12-20T00:05:52;9.41;91.91
68556;HTU21D;55544;51.032;5.866;2023-12-20T00:08:18;9.38;91.90
68556;HTU21D;55544;51.032;5.866;2023-12-20T00:10:44;9.29;91.59
68556;HTU21D;55544;51.032;5.866;2023-12-20T00:13:10;9.22;92.05
68556;HTU21D;55544;51.032;5.866;2023-12-20T00:15:36;9.15;92.14
68556;HTU21D;55544;51.032;5.866;2023-12-20T00:18:03;9.14;91.89
68556;HTU21D;55544;51.032;5.866;2023-12-20T00:20:28;9.11;91.82
68556;HTU21D;55544;51.032;5.866;2023-12-20T00:22:56;9.11;91.91
68556;HTU21D;55544;51.032;5.866;2023-12-20T00:25:22;9.08;91.34
68556;HTU21D;55544;51.032;5.866;2023-12-20T00:27:48;9.03;90.88
68556;HTU21D;55544;51.032;5.866;2023-12-20T00:30:13;8.96;90.60
68556;HTU21D;55544;51.032;5.866;2023-12-20T00:32:39;8.91;90.05
68556;HTU21D;55544;51.032;5.866;2023-12-20T00:35:07;8.82;90.05
68556;HTU21D;55544;51.032;5.866;2023-12-20T00:37:32;8.77;90.04
68556;HTU21D;55544;51.032;5.866;2023-12-20T00:39:58;8.74;89.79
68556;HTU21D;55544;51.032;5.866;2023-12-20T00:42:24;8.68;89.33
68556;HTU21D;55544;51.032;5.866;2023-12-20T00:44:49;8.65;89.28
68556;HTU21D;55544;51.032;5.866;2023-12-20T00:47:16;8.62;88.74
68556;HTU21D;55544;51.032;5.866;2023-12-20T00:49:41;8.58;87.83
68556;HTU21D;55544;51.032;5.866;2023-12-20T00:52:07;8.52;88.00
68556;HTU21D;55544;51.032;5.866;2023-12-20T00:54:33;8.51;87.77
68556;HTU21D;55544;51.032;5.866;2023-12-20T00:56:59;8.43;87.32
68556;HTU21D;55544;51.032;5.866;2023-12-20T00:59:25;8.41;87.43
68556;HTU21D;55544;51.032;5.866;2023-12-20T01:01:51;8.38;86.96
68556;HTU21D;55544;51.032;5.866;2023-12-20T01:04:16;8.32;86.70
68556;HTU21D;55544;51.032;5.866;2023-12-20T01:06:42;8.24;86.90
68556;HTU21D;55544;51.032;5.866;2023-12-20T01:09:08;8.29;86.22
68556;HTU21D;55544;51.032;5.866;2023-12-20T01:11:33;8.21;86.57
68556;HTU21D;55544;51.032;5.866;2023-12-20T01:13:59;8.13;86.89
68556;HTU21D;55544;51.032;5.866;2023-12-20T01:16:25;8.14;86.87
68556;HTU21D;55544;51.032;5.866;2023-12-20T01:18:50;8.15;86.96
68556;HTU21D;55544;51.032;5.866;2023-12-20T01:21:16;8.09;87.10
68556;HTU21D;55544;51.032;5.866;2023-12-20T01:23:42;8.12;86.90
68556;HTU21D;55544;51.032;5.866;2023-12-20T01:26:07;8.04;86.93
68556;HTU21D;55544;51.032;5.866;2023-12-20T01:28:33;7.93;87.20
68556;HTU21D;55544;51.032;5.866;2023-12-20T01:30:59;8.00;86.96
68556;HTU21D;55544;51.032;5.866;2023-12-20T01:33:24;7.96;86.99
68556;HTU21D;55544;51.032;5.866;2023-12-20T01:35:50;7.92;86.78
68556;HTU21D;55544;51.032;5.866;2023-12-20T01:38:16;7.85;87.38
68556;HTU21D;55544;51.032;5.866;2023-12-20T01:40:44;7.81;86.88
68556;HTU21D;55544;51.032;5.866;2023-12-20T01:43:10;7.81;86.90
68556;HTU21D;55544;51.032;5.866;2023-12-20T01:45:38;7.76;87.11
68556;HTU21D;55544;51.032;5.866;2023-12-20T01:48:05;7.70;86.96
68556;HTU21D;55544;51.032;5.866;2023-12-20T01:50:32;7.65;87.01
68556;HTU21D;55544;51.032;5.866;2023-12-20T01:53:01;7.61;87.38
68556;HTU21D;55544;51.032;5.866;2023-12-20T01:55:31;7.57;87.27
68556;HTU21D;55544;51.032;5.866;2023-12-20T01:57:59;7.58;87.41
68556;HTU21D;55544;51.032;5.866;2023-12-20T02:00:27;7.53;87.67
68556;HTU21D;55544;51.032;5.866;2023-12-20T02:02:54;7.50;88.23
68556;HTU21D;55544;51.032;5.866;2023-12-20T02:05:24;7.48;88.05
68556;HTU21D;55544;51.032;5.866;2023-12-20T02:07:51;7.49;87.90
68556;HTU21D;55544;51.032;5.866;2023-12-20T02:10:17;7.47;87.69
68556;HTU21D;55544;51.032;5.866;2023-12-20T02:12:43;7.39;88.05
68556;HTU21D;55544;51.032;5.866;2023-12-20T02:15:08;7.34;88.09
68556;HTU21D;55544;51.032;5.866;2023-12-20T02:17:35;7.32;87.97
68556;HTU21D;55544;51.032;5.866;2023-12-20T02:20:01;7.33;88.17
68556;HTU21D;55544;51.032;5.866;2023-12-20T02:22:28;7.33;88.89
68556;HTU21D;55544;51.032;5.866;2023-12-20T02:24:53;7.31;88.70
68556;HTU21D;55544;51.032;5.866;2023-12-20T02:27:20;7.33;88.87
68556;HTU21D;55544;51.032;5.866;2023-12-20T02:29:47;7.35;88.80
68556;HTU21D;55544;51.032;5.866;2023-12-20T02:32:14;7.25;89.21
68556;HTU21D;55544;51.032;5.866;2023-12-20T02:34:39;7.28;88.99
68556;HTU21D;55544;51.032;5.866;2023-12-20T02:37:05;7.28;88.88
68556;HTU21D;55544;51.032;5.866;2023-12-20T02:39:31;7.30;88.73
68556;HTU21D;55544;51.032;5.866;2023-12-20T02:41:56;7.25;89.02
68556;HTU21D;55544;51.032;5.866;2023-12-20T02:44:22;7.24;89.13
68556;HTU21D;55544;51.032;5.866;2023-12-20T02:46:48;7.15;89.25
68556;HTU21D;55544;51.032;5.866;2023-12-20T02:49:13;7.23;89.24
68556;HTU21D;55544;51.032;5.866;2023-12-20T02:51:39;7.25;89.20
68556;HTU21D;55544;51.032;5.866;2023-12-20T02:54:05;7.25;89.47
68556;HTU21D;55544;51.032;5.866;2023-12-20T02:56:32;7.31;88.89
68556;HTU21D;55544;51.032;5.866;2023-12-20T02:58:58;7.34;88.60
68556;HTU21D;55544;51.032;5.866;2023-12-20T03:01:23;7.26;88.80
68556;HTU21D;55544;51.032;5.866;2023-12-20T03:03:50;7.27;89.09
68556;HTU21D;55544;51.032;5.866;2023-12-20T03:06:20;7.25;88.84
68556;HTU21D;55544;51.032;5.866;2023-12-20T03:08:46;7.23;89.09
68556;HTU21D;55544;51.032;5.866;2023-12-20T03:11:12;7.24;88.67
68556;HTU21D;55544;51.032;5.866;2023-12-20T03:13:37;7.12;88.70
68556;HTU21D;55544;51.032;5.866;2023-12-20T03:16:10;7.13;88.72
68556;HTU21D;55544;51.032;5.866;2023-12-20T03:18:36;7.12;88.60
68556;HTU21D;55544;51.032;5.866;2023-12-20T03:21:02;7.14;88.47
68556;HTU21D;55544;51.032;5.866;2023-12-20T03:23:29;7.08;88.79
68556;HTU21D;55544;51.032;5.866;2023-12-20T03:25:56;7.10;88.82
68556;HTU21D;55544;51.032;5.866;2023-12-20T03:28:22;7.07;88.82
68556;HTU21D;55544;51.032;5.866;2023-12-20T03:30:48;7.04;89.05
68556;HTU21D;55544;51.032;5.866;2023-12-20T03:33:14;6.95;89.72
68556;HTU21D;55544;51.032;5.866;2023-12-20T03:35:40;7.07;89.38
68556;HTU21D;55544;51.032;5.866;2023-12-20T03:38:06;7.07;89.33
68556;HTU21D;55544;51.032;5.866;2023-12-20T03:40:32;7.09;89.65
68556;HTU21D;55544;51.032;5.866;2023-12-20T03:42:58;7.13;89.73
68556;HTU21D;55544;51.032;5.866;2023-12-20T03:45:24;7.13;89.47
68556;HTU21D;55544;51.032;5.866;2023-12-20T03:47:50;7.17;89.09
68556;HTU21D;55544;51.032;5.866;2023-12-20T03:50:23;7.10;89.50
68556;HTU21D;55544;51.032;5.866;2023-12-20T03:52:49;7.12;89.46
68556;HTU21D;55544;51.032;5.866;2023-12-20T03:55:16;7.13;88.86
68556;HTU21D;55544;51.032;5.866;2023-12-20T03:57:42;7.09;89.12
68556;HTU21D;55544;51.032;5.866;2023-12-20T04:00:09;7.02;88.62
68556;HTU21D;55544;51.032;5.866;2023-12-20T04:02:38;7.02;88.95
68556;HTU21D;55544;51.032;5.866;2023-12-20T04:05:05;6.93;89.11
68556;HTU21D;55544;51.032;5.866;2023-12-20T04:07:31;6.91;88.83
68556;HTU21D;55544;51.032;5.866;2023-12-20T04:09:57;6.94;89.13
68556;HTU21D;55544;51.032;5.866;2023-12-20T04:12:23;6.86;89.37
68556;HTU21D;55544;51.032;5.866;2023-12-20T04:14:49;6.84;89.30
68556;HTU21D;55544;51.032;5.866;2023-12-20T04:17:15;6.83;89.41
68556;HTU21D;55544;51.032;5.866;2023-12-20T04:19:42;6.84;89.36
68556;HTU21D;55544;51.032;5.866;2023-12-20T04:22:08;6.83;89.78
68556;HTU21D;55544;51.032;5.866;2023-12-20T04:24:33;6.81;89.52
68556;HTU21D;55544;51.032;5.866;2023-12-20T04:26:59;6.76;90.02
68556;HTU21D;55544;51.032;5.866;2023-12-20T04:29:25;6.78;90.03
68556;HTU21D;55544;51.032;5.866;2023-12-20T04:31:51;6.78;89.76
68556;HTU21D;55544;51.032;5.866;2023-12-20T04:34:20;6.76;90.57
68556;HTU21D;55544;51.032;5.866;2023-12-20T04:36:46;6.78;90.55
68556;HTU21D;55544;51.032;5.866;2023-12-20T04:39:13;6.80;90.18
68556;HTU21D;55544;51.032;5.866;2023-12-20T04:41:40;6.83;90.43
68556;HTU21D;55544;51.032;5.866;2023-12-20T04:44:06;6.78;90.29
68556;HTU21D;55544;51.032;5.866;2023-12-20T04:46:32;6.81;90.24
68556;HTU21D;55544;51.032;5.866;2023-12-20T04:48:58;6.90;90.24
68556;HTU21D;55544;51.032;5.866;2023-12-20T04:51:23;6.88;90.52
68556;HTU21D;55544;51.032;5.866;2023-12-20T04:53:50;6.86;90.28
68556;HTU21D;55544;51.032;5.866;2023-12-20T04:56:16;6.87;90.70
68556;HTU21D;55544;51.032;5.866;2023-12-20T04:58:42;6.97;90.31
68556;HTU21D;55544;51.032;5.866;2023-12-20T05:01:08;6.86;90.44
68556;HTU21D;55544;51.032;5.866;2023-12-20T05:03:34;6.79;90.98
68556;HTU21D;55544;51.032;5.866;2023-12-20T05:06:00;6.89;90.53
68556;HTU21D;55544;51.032;5.866;2023-12-20T05:08:26;7.01;90.45
68556;HTU21D;55544;51.032;5.866;2023-12-20T05:10:54;6.98;90.24
68556;HTU21D;55544;51.032;5.866;2023-12-20T05:13:20;7.02;90.10
68556;HTU21D;55544;51.032;5.866;2023-12-20T05:15:46;7.08;90.05
68556;HTU21D;55544;51.032;5.866;2023-12-20T05:18:12;7.02;90.05
68556;HTU21D;55544;51.032;5.866;2023-12-20T05:20:38;6.96;90.51
68556;HTU21D;55544;51.032;5.866;2023-12-20T05:23:04;6.99;90.31
68556;HTU21D;55544;51.032;5.866;2023-12-20T05:25:30;7.00;90.31
68556;HTU21D;55544;51.032;5.866;2023-12-20T05:27:56;7.04;90.03
68556;HTU21D;55544;51.032;5.866;2023-12-20T05:30:22;7.01;90.05
68556;HTU21D;55544;51.032;5.866;2023-12-20T05:32:48;7.10;89.79
68556;HTU21D;55544;51.032;5.866;2023-12-20T05:35:13;7.10;89.62
68556;HTU21D;55544;51.032;5.866;2023-12-20T05:37:39;7.13;89.51
68556;HTU21D;55544;51.032;5.866;2023-12-20T05:40:05;7.10;89.55
68556;HTU21D;55544;51.032;5.866;2023-12-20T05:42:31;7.09;89.57
68556;HTU21D;55544;51.032;5.866;2023-12-20T05:44:57;7.10;89.25
68556;HTU21D;55544;51.032;5.866;2023-12-20T05:47:22;7.08;89.25
68556;HTU21D;55544;51.032;5.866;2023-12-20T05:49:48;6.98;89.40
68556;HTU21D;55544;51.032;5.866;2023-12-20T05:52:15;7.05;89.53
68556;HTU21D;55544;51.032;5.866;2023-12-20T05:54:41;7.09;89.24
68556;HTU21D;55544;51.032;5.866;2023-12-20T05:57:07;7.07;89.50
68556;HTU21D;55544;51.032;5.866;2023-12-20T05:59:32;7.09;89.31
68556;HTU21D;55544;51.032;5.866;2023-12-20T06:01:58;7.13;89.31
68556;HTU21D;55544;51.032;5.866;2023-12-20T06:04:24;7.03;89.72
68556;HTU21D;55544;51.032;5.866;2023-12-20T06:06:49;7.05;89.38
68556;HTU21D;55544;51.032;5.866;2023-12-20T06:09:15;7.10;89.54
68556;HTU21D;55544;51.032;5.866;2023-12-20T06:11:41;7.11;89.09
68556;HTU21D;55544;51.032;5.866;2023-12-20T06:14:06;7.08;89.21
68556;HTU21D;55544;51.032;5.866;2023-12-20T06:16:32;7.12;88.99
68556;HTU21D;55544;51.032;5.866;2023-12-20T06:18:58;7.08;89.16
68556;HTU21D;55544;51.032;5.866;2023-12-20T06:21:24;7.03;89.27
68556;HTU21D;55544;51.032;5.866;2023-12-20T06:23:49;7.01;89.57
68556;HTU21D;55544;51.032;5.866;2023-12-20T06:26:15;6.97;88.57
68556;HTU21D;55544;51.032;5.866;2023-12-20T06:28:41;6.98;89.31
68556;HTU21D;55544;51.032;5.866;2023-12-20T06:31:06;6.90;89.18
68556;HTU21D;55544;51.032;5.866;2023-12-20T06:33:32;6.99;88.96
68556;HTU21D;55544;51.032;5.866;2023-12-20T06:35:58;7.01;88.38
68556;HTU21D;55544;51.032;5.866;2023-12-20T06:38:24;6.98;88.67
68556;HTU21D;55544;51.032;5.866;2023-12-20T06:40:49;6.96;88.75
68556;HTU21D;55544;51.032;5.866;2023-12-20T06:43:15;6.93;88.79
68556;HTU21D;55544;51.032;5.866;2023-12-20T06:45:41;6.90;88.40
68556;HTU21D;55544;51.032;5.866;2023-12-20T06:48:07;6.88;88.63
68556;HTU21D;55544;51.032;5.866;2023-12-20T06:50:32;6.88;88.22
68556;HTU21D;55544;51.032;5.866;2023-12-20T06:52:58;6.96;88.12
68556;HTU21D;55544;51.032;5.866;2023-12-20T06:55:24;6.85;88.43
68556;HTU21D;55544;51.032;5.866;2023-12-20T06:57:50;6.85;88.32
68556;HTU21D;55544;51.032;5.866;2023-12-20T07:00:16;6.71;88.87
68556;HTU21D;55544;51.032;5.866;2023-12-20T07:02:42;6.82;88.60
68556;HTU21D;55544;51.032;5.866;2023-12-20T07:05:09;6.73;88.47
68556;HTU21D;55544;51.032;5.866;2023-12-20T07:07:34;6.76;88.30
68556;HTU21D;55544;51.032;5.866;2023-12-20T07:10:00;6.73;88.56
68556;HTU21D;55544;51.032;5.866;2023-12-20T07:12:26;6.75;88.54
68556;HTU21D;55544;51.032;5.866;2023-12-20T07:14:51;6.70;88.60
68556;HTU21D;55544;51.032;5.866;2023-12-20T07:17:17;6.63;88.96
68556;HTU21D;55544;51.032;5.866;2023-12-20T07:19:43;6.72;88.09
68556;HTU21D;55544;51.032;5.866;2023-12-20T07:22:08;6.64;88.82
68556;HTU21D;55544;51.032;5.866;2023-12-20T07:24:34;6.56;88.91
68556;HTU21D;55544;51.032;5.866;2023-12-20T07:27:00;6.58;88.75
68556;HTU21D;55544;51.032;5.866;2023-12-20T07:29:26;6.53;88.87
68556;HTU21D;55544;51.032;5.866;2023-12-20T07:31:55;6.52;88.81
68556;HTU21D;55544;51.032;5.866;2023-12-20T07:34:21;6.40;89.35
68556;HTU21D;55544;51.032;5.866;2023-12-20T07:36:46;6.41;89.50
68556;HTU21D;55544;51.032;5.866;2023-12-20T07:39:13;6.40;89.07
68556;HTU21D;55544;51.032;5.866;2023-12-20T07:41:39;6.44;89.45
68556;HTU21D;55544;51.032;5.866;2023-12-20T07:44:06;6.42;89.10
68556;HTU21D;55544;51.032;5.866;2023-12-20T07:46:32;6.42;89.45
68556;HTU21D;55544;51.032;5.866;2023-12-20T07:48:58;6.40;89.59
68556;HTU21D;55544;51.032;5.866;2023-12-20T07:51:23;6.41;89.44
68556;HTU21D;55544;51.032;5.866;2023-12-20T07:53:49;6.50;89.50
68556;HTU21D;55544;51.032;5.866;2023-12-20T07:56:19;6.54;88.98
68556;HTU21D;55544;51.032;5.866;2023-12-20T07:58:46;6.48;89.41
68556;HTU21D;55544;51.032;5.866;2023-12-20T08:01:12;6.42;89.67
68556;HTU21D;55544;51.032;5.866;2023-12-20T08:03:38;6.51;89.25
68556;HTU21D;55544;51.032;5.866;2023-12-20T08:06:04;6.54;89.37
68556;HTU21D;55544;51.032;5.866;2023-12-20T08:08:30;6.53;89.33
68556;HTU21D;55544;51.032;5.866;2023-12-20T08:10:56;6.50;89.38
68556;HTU21D;55544;51.032;5.866;2023-12-20T08:13:24;6.55;89.32
68556;HTU21D;55544;51.032;5.866;2023-12-20T08:15:52;6.65;88.30
68556;HTU21D;55544;51.032;5.866;2023-12-20T08:18:18;6.60;88.44
68556;HTU21D;55544;51.032;5.866;2023-12-20T08:20:44;6.71;88.09
68556;HTU21D;55544;51.032;5.866;2023-12-20T08:23:09;6.59;88.44
68556;HTU21D;55544;51.032;5.866;2023-12-20T08:25:35;6.68;88.44
68556;HTU21D;55544;51.032;5.866;2023-12-20T08:28:02;6.67;88.22
68556;HTU21D;55544;51.032;5.866;2023-12-20T08:30:29;6.75;88.24
68556;HTU21D;55544;51.032;5.866;2023-12-20T08:32:56;6.79;87.94
68556;HTU21D;55544;51.032;5.866;2023-12-20T08:35:22;6.75;88.26
68556;HTU21D;55544;51.032;5.866;2023-12-20T08:37:48;6.85;87.77
68556;HTU21D;55544;51.032;5.866;2023-12-20T08:40:13;7.28;86.83
68556;HTU21D;55544;51.032;5.866;2023-12-20T08:42:39;7.31;85.77
68556;HTU21D;55544;51.032;5.866;2023-12-20T08:45:05;7.16;86.22
68556;HTU21D;55544;51.032;5.866;2023-12-20T08:47:31;7.16;86.16
68556;HTU21D;55544;51.032;5.866;2023-12-20T08:49:57;7.07;86.74
68556;HTU21D;55544;51.032;5.866;2023-12-20T08:52:25;7.05;86.80
68556;HTU21D;55544;51.032;5.866;2023-12-20T08:54:55;7.15;86.77
68556;HTU21D;55544;51.032;5.866;2023-12-20T08:57:21;7.18;86.84
68556;HTU21D;55544;51.032;5.866;2023-12-20T08:59:49;7.33;86.43
68556;HTU21D;55544;51.032;5.866;2023-12-20T09:02:16;7.31;85.38
68556;HTU21D;55544;51.032;5.866;2023-12-20T09:04:42;7.29;86.36
68556;HTU21D;55544;51.032;5.866;2023-12-20T09:07:21;7.43;85.43
68556;HTU21D;55544;51.032;5.866;2023-12-20T09:09:47;7.45;85.71
68556;HTU21D;55544;51.032;5.866;2023-12-20T09:12:13;7.46;85.33
68556;HTU21D;55544;51.032;5.866;2023-12-20T09:14:38;7.48;85.28
68556;HTU21D;55544;51.032;5.866;2023-12-20T09:17:04;7.54;85.51
68556;HTU21D;55544;51.032;5.866;2023-12-20T09:19:30;7.59;85.00
68556;HTU21D;55544;51.032;5.866;2023-12-20T09:21:55;7.55;84.89
68556;HTU21D;55544;51.032;5.866;2023-12-20T09:24:21;7.55;85.29
68556;HTU21D;55544;51.032;5.866;2023-12-20T09:26:47;7.59;85.03
68556;HTU21D;55544;51.032;5.866;2023-12-20T09:29:12;7.63;84.93
68556;HTU21D;55544;51.032;5.866;2023-12-20T09:31:41;7.60;85.05
68556;HTU21D;55544;51.032;5.866;2023-12-20T09:34:09;7.63;84.83
68556;HTU21D;55544;51.032;5.866;2023-12-20T09:36:34;7.86;84.22
68556;HTU21D;55544;51.032;5.866;2023-12-20T09:39:02;7.86;84.19
68556;HTU21D;55544;51.032;5.866;2023-12-20T09:41:32;7.81;84.09
68556;HTU21D;55544;51.032;5.866;2023-12-20T09:44:02;7.81;83.09
68556;HTU21D;55544;51.032;5.866;2023-12-20T09:46:32;7.84;83.55
68556;HTU21D;55544;51.032;5.866;2023-12-20T09:49:00;7.96;83.84
68556;HTU21D;55544;51.032;5.866;2023-12-20T09:51:29;8.09;84.18
68556;HTU21D;55544;51.032;5.866;2023-12-20T09:53:55;8.11;82.99
68556;HTU21D;55544;51.032;5.866;2023-12-20T09:56:25;7.94;83.37
68556;HTU21D;55544;51.032;5.866;2023-12-20T09:58:51;7.94;83.29
68556;HTU21D;55544;51.032;5.866;2023-12-20T10:01:17;8.05;82.36
68556;HTU21D;55544;51.032;5.866;2023-12-20T10:03:43;7.96;83.00
68556;HTU21D;55544;51.032;5.866;2023-12-20T10:06:10;7.92;83.57
68556;HTU21D;55544;51.032;5.866;2023-12-20T10:08:36;7.88;83.67
68556;HTU21D;55544;51.032;5.866;2023-12-20T10:11:01;7.98;83.51
68556;HTU21D;55544;51.032;5.866;2023-12-20T10:13:28;7.94;83.62
68556;HTU21D;55544;51.032;5.866;2023-12-20T10:15:55;7.96;83.31
68556;HTU21D;55544;51.032;5.866;2023-12-20T10:18:21;8.00;83.00
68556;HTU21D;55544;51.032;5.866;2023-12-20T10:20:47;7.98;83.12
68556;HTU21D;55544;51.032;5.866;2023-12-20T10:23:15;7.87;83.90
68556;HTU21D;55544;51.032;5.866;2023-12-20T10:25:41;7.97;83.38
68556;HTU21D;55544;51.032;5.866;2023-12-20T10:28:12;7.91;83.40
68556;HTU21D;55544;51.032;5.866;2023-12-20T10:30:40;7.97;83.22
68556;HTU21D;55544;51.032;5.866;2023-12-20T10:33:07;8.09;83.39
68556;HTU21D;55544;51.032;5.866;2023-12-20T10:35:36;7.93;83.67
68556;HTU21D;55544;51.032;5.866;2023-12-20T10:38:06;7.99;83.37
68556;HTU21D;55544;51.032;5.866;2023-12-20T10:40:36;8.03;82.85
68556;HTU21D;55544;51.032;5.866;2023-12-20T10:43:03;7.98;83.16
68556;HTU21D;55544;51.032;5.866;2023-12-20T10:45:29;7.93;83.23
68556;HTU21D;55544;51.032;5.866;2023-12-20T10:47:56;8.02;83.26
68556;HTU21D;55544;51.032;5.866;2023-12-20T10:50:24;7.99;83.40
68556;HTU21D;55544;51.032;5.866;2023-12-20T10:52:52;8.01;83.72
68556;HTU21D;55544;51.032;5.866;2023-12-20T10:55:24;8.09;83.58
68556;HTU21D;55544;51.032;5.866;2023-12-20T10:57:51;8.03;83.93
68556;HTU21D;55544;51.032;5.866;2023-12-20T11:00:19;8.14;82.90
68556;HTU21D;55544;51.032;5.866;2023-12-20T11:02:49;8.19;83.18
68556;HTU21D;55544;51.032;5.866;2023-12-20T11:05:35;8.12;82.52
68556;HTU21D;55544;51.032;5.866;2023-12-20T11:08:10;8.24;82.92
68556;HTU21D;55544;51.032;5.866;2023-12-20T11:10:48;8.20;83.07
68556;HTU21D;55544;51.032;5.866;2023-12-20T11:13:37;8.15;83.05
68556;HTU21D;55544;51.032;5.866;2023-12-20T11:16:07;8.16;82.84
68556;HTU21D;55544;51.032;5.866;2023-12-20T11:18:33;8.23;82.71
68556;HTU21D;55544;51.032;5.866;2023-12-20T11:21:04;8.24;83.07
68556;HTU21D;55544;51.032;5.866;2023-12-20T11:23:32;8.27;82.68
68556;HTU21D;55544;51.032;5.866;2023-12-20T11:26:01;8.26;83.09
68556;HTU21D;55544;51.032;5.866;2023-12-20T11:28:27;8.24;83.00
68556;HTU21D;55544;51.032;5.866;2023-12-20T11:30:57;8.37;82.42
68556;HTU21D;55544;51.032;5.866;2023-12-20T11:33:30;8.31;83.16
68556;HTU21D;55544;51.032;5.866;2023-12-20T11:35:57;8.31;83.00
68556;HTU21D;55544;51.032;5.866;2023-12-20T11:38:25;8.28;82.52
68556;HTU21D;55544;51.032;5.866;2023-12-20T11:40:54;8.23;83.00
68556;HTU21D;55544;51.032;5.866;2023-12-20T11:43:34;8.33;82.58
68556;HTU21D;55544;51.032;5.866;2023-12-20T11:46:08;8.30;82.91
68556;HTU21D;55544;51.032;5.866;2023-12-20T11:48:39;8.32;83.07
68556;HTU21D;55544;51.032;5.866;2023-12-20T11:51:10;8.31;82.84
68556;HTU21D;55544;51.032;5.866;2023-12-20T11:53:37;8.31;82.78
68556;HTU21D;55544;51.032;5.866;2023-12-20T11:56:04;8.36;82.46
68556;HTU21D;55544;51.032;5.866;2023-12-20T11:58:31;8.32;82.84
68556;HTU21D;55544;51.032;5.866;2023-12-20T12:00:57;8.44;82.65
68556;HTU21D;55544;51.032;5.866;2023-12-20T12:03:23;8.35;82.75
68556;HTU21D;55544;51.032;5.866;2023-12-20T12:05:49;8.43;82.58
68556;HTU21D;55544;51.032;5.866;2023-12-20T12:08:16;8.37;83.29
68556;HTU21D;55544;51.032;5.866;2023-12-20T12:10:43;8.34;83.36
68556;HTU21D;55544;51.032;5.866;2023-12-20T12:13:09;8.28;84.14
68556;HTU21D;55544;51.032;5.866;2023-12-20T12:15:36;8.37;83.62
68556;HTU21D;55544;51.032;5.866;2023-12-20T12:18:03;8.31;84.07
68556;HTU21D;55544;51.032;5.866;2023-12-20T12:20:30;8.24;85.16
68556;HTU21D;55544;51.032;5.866;2023-12-20T12:23:04;8.28;84.61
68556;HTU21D;55544;51.032;5.866;2023-12-20T12:25:30;8.23;85.33
68556;HTU21D;55544;51.032;5.866;2023-12-20T12:27:58;8.27;85.62
68556;HTU21D;55544;51.032;5.866;2023-12-20T12:30:24;8.28;85.89
68556;HTU21D;55544;51.032;5.866;2023-12-20T12:32:52;8.23;86.26
68556;HTU21D;55544;51.032;5.866;2023-12-20T12:35:18;8.27;86.16
68556;HTU21D;55544;51.032;5.866;2023-12-20T12:37:44;8.28;86.38
68556;HTU21D;55544;51.032;5.866;2023-12-20T12:40:14;8.26;86.98
68556;HTU21D;55544;51.032;5.866;2023-12-20T12:42:41;8.29;87.18
68556;HTU21D;55544;51.032;5.866;2023-12-20T12:45:08;8.30;87.19
68556;HTU21D;55544;51.032;5.866;2023-12-20T12:47:34;8.46;86.40
68556;HTU21D;55544;51.032;5.866;2023-12-20T12:50:00;8.38;87.32
68556;HTU21D;55544;51.032;5.866;2023-12-20T12:52:26;8.30;87.96
68556;HTU21D;55544;51.032;5.866;2023-12-20T12:54:53;8.41;87.54
68556;HTU21D;55544;51.032;5.866;2023-12-20T12:57:19;8.41;87.97
68556;HTU21D;55544;51.032;5.866;2023-12-20T12:59:46;8.38;87.76
68556;HTU21D;55544;51.032;5.866;2023-12-20T13:02:13;8.23;88.09
68556;HTU21D;55544;51.032;5.866;2023-12-20T13:04:39;8.31;88.30
68556;HTU21D;55544;51.032;5.866;2023-12-20T13:07:06;8.48;87.60
68556;HTU21D;55544;51.032;5.866;2023-12-20T13:09:33;8.36;87.49
68556;HTU21D;55544;51.032;5.866;2023-12-20T13:11:59;8.44;87.81
68556;HTU21D;55544;51.032;5.866;2023-12-20T13:14:25;8.41;87.89
68556;HTU21D;55544;51.032;5.866;2023-12-20T13:16:51;8.41;88.02
68556;HTU21D;55544;51.032;5.866;2023-12-20T13:19:16;8.38;87.80
68556;HTU21D;55544;51.032;5.866;2023-12-20T13:21:42;8.42;87.82
68556;HTU21D;55544;51.032;5.866;2023-12-20T13:24:08;8.45;87.85
68556;HTU21D;55544;51.032;5.866;2023-12-20T13:26:33;8.41;87.93
68556;HTU21D;55544;51.032;5.866;2023-12-20T13:28:59;8.45;87.98
68556;HTU21D;55544;51.032;5.866;2023-12-20T13:31:25;8.47;88.32
68556;HTU21D;55544;51.032;5.866;2023-12-20T13:33:50;8.38;88.29
68556;HTU21D;55544;51.032;5.866;2023-12-20T13:36:18;8.51;88.21
68556;HTU21D;55544;51.032;5.866;2023-12-20T13:38:44;8.41;88.59
68556;HTU21D;55544;51.032;5.866;2023-12-20T13:41:09;8.56;88.30
68556;HTU21D;55544;51.032;5.866;2023-12-20T13:43:35;8.52;88.87
68556;HTU21D;55544;51.032;5.866;2023-12-20T13:46:01;8.62;89.09
68556;HTU21D;55544;51.032;5.866;2023-12-20T13:48:27;8.60;89.12
68556;HTU21D;55544;51.032;5.866;2023-12-20T13:50:53;8.56;89.21
68556;HTU21D;55544;51.032;5.866;2023-12-20T13:53:20;8.61;88.97
68556;HTU21D;55544;51.032;5.866;2023-12-20T13:55:46;8.57;89.15
68556;HTU21D;55544;51.032;5.866;2023-12-20T13:58:12;8.68;88.86
68556;HTU21D;55544;51.032;5.866;2023-12-20T14:00:38;8.72;88.76
68556;HTU21D;55544;51.032;5.866;2023-12-20T14:03:04;8.66;88.80
68556;HTU21D;55544;51.032;5.866;2023-12-20T14:05:30;8.65;88.88
68556;HTU21D;55544;51.032;5.866;2023-12-20T14:07:56;8.74;88.35
68556;HTU21D;55544;51.032;5.866;2023-12-20T14:10:24;8.68;88.45
68556;HTU21D;55544;51.032;5.866;2023-12-20T14:12:52;8.70;88.47
68556;HTU21D;55544;51.032;5.866;2023-12-20T14:15:18;8.67;88.28
68556;HTU21D;55544;51.032;5.866;2023-12-20T14:17:44;8.70;88.04
68556;HTU21D;55544;51.032;5.866;2023-12-20T14:20:10;8.66;87.77
68556;HTU21D;55544;51.032;5.866;2023-12-20T14:22:38;8.77;87.35
68556;HTU21D;55544;51.032;5.866;2023-12-20T14:25:11;8.74;87.60
68556;HTU21D;55544;51.032;5.866;2023-12-20T14:27:38;8.77;87.59
68556;HTU21D;55544;51.032;5.866;2023-12-20T14:30:05;8.67;88.15
68556;HTU21D;55544;51.032;5.866;2023-12-20T14:32:35;8.77;87.73
68556;HTU21D;55544;51.032;5.866;2023-12-20T14:35:07;8.77;87.53
68556;HTU21D;55544;51.032;5.866;2023-12-20T14:37:34;8.85;87.22
68556;HTU21D;55544;51.032;5.866;2023-12-20T14:40:01;8.86;87.06
68556;HTU21D;55544;51.032;5.866;2023-12-20T14:42:26;8.87;86.94
68556;HTU21D;55544;51.032;5.866;2023-12-20T14:44:52;8.85;86.96
68556;HTU21D;55544;51.032;5.866;2023-12-20T14:47:20;8.86;86.63
68556;HTU21D;55544;51.032;5.866;2023-12-20T14:49:45;8.86;86.56
68556;HTU21D;55544;51.032;5.866;2023-12-20T14:52:13;8.87;86.69
68556;HTU21D;55544;51.032;5.866;2023-12-20T14:54:38;8.93;86.56
68556;HTU21D;55544;51.032;5.866;2023-12-20T14:57:04;8.87;86.95
68556;HTU21D;55544;51.032;5.866;2023-12-20T14:59:30;8.80;87.05
68556;HTU21D;55544;51.032;5.866;2023-12-20T15:01:56;8.85;86.54
68556;HTU21D;55544;51.032;5.866;2023-12-20T15:04:22;8.81;86.58
68556;HTU21D;55544;51.032;5.866;2023-12-20T15:06:54;8.88;86.66
68556;HTU21D;55544;51.032;5.866;2023-12-20T15:09:20;8.79;86.73
68556;HTU21D;55544;51.032;5.866;2023-12-20T15:11:47;8.83;86.69
68556;HTU21D;55544;51.032;5.866;2023-12-20T15:14:13;8.74;86.80
68556;HTU21D;55544;51.032;5.866;2023-12-20T15:16:46;8.89;86.25
68556;HTU21D;55544;51.032;5.866;2023-12-20T15:19:13;8.83;86.57
68556;HTU21D;55544;51.032;5.866;2023-12-20T15:21:40;8.88;86.69
68556;HTU21D;55544;51.032;5.866;2023-12-20T15:24:11;8.77;86.96
68556;HTU21D;55544;51.032;5.866;2023-12-20T15:26:43;8.81;86.72